Terminal Aerodrome Forecast
Issued by NWS Sioux Falls, SD

Home | Current Version | Previous Version | Text Only | Print | Product List | Glossary On
Versions: 1 2 3 4 5 6 7 8 9 10 11 12 13 14 15 16 17 18 19 20 21 22 23 24 25 26
000
FTUS43 KFSD 290606 AAA
TAFSUX
TAF AMD
KSUX 290606Z 2906/3006 03012KT 5SM -SN SCT025 OVC040
      TEMPO 2906/2910 2SM -SN BKN025
     FM291000 02012KT 6SM -SN OVC035
      TEMPO 2910/2913 3SM -SN BKN015
     FM291500 01013G19KT 6SM -SN SCT015 BKN035
     FM291900 36014G21KT P6SM SCT015 BKN035
     FM300000 35013G19KT P6SM BKN040=

USA.gov is the U.S. government's official web portal to all federal, state and local government web resources and services.